Sertosa Veintisiete — EAJZ — position and weather

sailwx.info

Track history (hours):
 
Tides and Currents Weather Stations Pressure Air Temp Water Temp Dewpoint Dewpoint Depression Visibility Wind Speed Wind Dir Waves Ship Positions

Sertosa Veintisiete

Last reported at 2017-Feb-28 05:33 UTC. Time now 2017-Feb-28 05:39 UTC.
Position N 36°10' W 005°23'.

Length 30 m; draft 5.5 m.

Type: Tug. MMSI: 224337000.

Date/timePositionNaut miles runAvg speedWind from/ knotsBaromVisibWave heightAir tempDewpointWater temp
2017-Feb-28 05:33N 36°10' W 005°23'1 0.8
2017-Feb-28 04:33N 36°11' W 005°24'1 1.1
2017-Feb-28 03:33N 36°09' W 005°24'1 0.9
2017-Feb-28 02:33N 36°10' W 005°24'1 0.7
2017-Feb-28 01:33N 36°10' W 005°23'1 0.8
2017-Feb-28 00:34N 36°10' W 005°24'1 0.8
2017-Feb-27 23:33N 36°10' W 005°23'0 0.0
2017-Feb-27 22:33N 36°10' W 005°23'0 0.0
2017-Feb-27 21:33N 36°10' W 005°23'0 0.0
2017-Feb-27 20:33N 36°10' W 005°23'0 0.0
2017-Feb-27 19:33N 36°10' W 005°23'1 1.1
2017-Feb-27 18:33N 36°11' W 005°24'0 0.1
2017-Feb-27 17:33N 36°11' W 005°24'0 0.0
2017-Feb-27 16:33N 36°11' W 005°24'0 0.2
2017-Feb-27 15:33N 36°11' W 005°24'0 0.4
2017-Feb-27 14:33N 36°11' W 005°24'0 0.1
2017-Feb-27 13:33N 36°11' W 005°24'0 0.0
2017-Feb-27 12:33N 36°11' W 005°24'0 0.0
2017-Feb-27 11:33N 36°11' W 005°24'1 0.9
2017-Feb-27 10:33N 36°10' W 005°24'9 9.3
2017-Feb-27 09:33N 36°01' W 005°19'8 7.7
2017-Feb-27 08:34N 35°54' W 005°18'2 2.4
2017-Feb-27 07:34N 35°56' W 005°18'1010.1
2017-Feb-27 06:33N 36°05' W 005°23'5 4.9
2017-Feb-27 05:33N 36°10' W 005°23'0 0.0
2017-Feb-27 04:33N 36°10' W 005°23'0 0.0
2017-Feb-27 03:33N 36°10' W 005°23'0 0.0
2017-Feb-27 02:33N 36°10' W 005°23'0 0.0
2017-Feb-27 01:33N 36°10' W 005°23'0 0.0
2017-Feb-27 00:33N 36°10' W 005°23'0 0.0
2017-Feb-26 23:33N 36°10' W 005°23'0 0.0
2017-Feb-26 22:33N 36°10' W 005°23'0 0.0
2017-Feb-26 21:33N 36°10' W 005°23'0 0.0
2017-Feb-26 20:33N 36°10' W 005°23'0 0.0
2017-Feb-26 19:33N 36°10' W 005°23'2 1.7
2017-Feb-26 18:33N 36°10' W 005°25'1 0.8
2017-Feb-26 17:33N 36°11' W 005°24'0 0.2
2017-Feb-26 16:33N 36°11' W 005°24'0 0.3
2017-Feb-26 15:33N 36°11' W 005°24'0 0.1
2017-Feb-26 14:33N 36°11' W 005°24'0 0.0
2017-Feb-26 13:33N 36°11' W 005°24'0 0.0
2017-Feb-26 12:33N 36°11' W 005°24'0 0.5
2017-Feb-26 11:33N 36°11' W 005°24'1 0.8
2017-Feb-26 10:33N 36°10' W 005°24'1 0.6
2017-Feb-26 09:34N 36°11' W 005°24'0 0.0
2017-Feb-26 08:33N 36°11' W 005°24'0 0.3
2017-Feb-26 07:33N 36°11' W 005°24'0 0.0
2017-Feb-26 06:33N 36°11' W 005°24'0 0.0
2017-Feb-26 05:33N 36°11' W 005°24'0 0.0
2017-Feb-26 04:33N 36°11' W 005°24'1 0.6
2017-Feb-26 03:34N 36°11' W 005°24'1 0.6
2017-Feb-26 02:33N 36°11' W 005°24'1 1.4
2017-Feb-26 01:34N 36°10' W 005°23'9 9.2
2017-Feb-26 00:33N 36°01' W 005°20'7 7.2
2017-Feb-25 23:33N 35°54' W 005°18'1 0.7
2017-Feb-25 22:34N 35°54' W 005°19'0 0.3
2017-Feb-25 21:33N 35°54' W 005°19'0 0.0
2017-Feb-25 20:33N 35°54' W 005°19'0 0.0
2017-Feb-25 19:33N 35°54' W 005°19'1 1.3
2017-Feb-25 18:33N 35°55' W 005°19'10 9.7
2017-Feb-25 17:33N 36°04' W 005°23'6 5.8
2017-Feb-25 16:33N 36°10' W 005°23'2 1.8
2017-Feb-25 15:34N 36°10' W 005°25'1 1.3
2017-Feb-25 14:34N 36°10' W 005°23'0 0.5
2017-Feb-25 13:33N 36°10' W 005°23'0 0.0
2017-Feb-25 12:34N 36°10' W 005°23'0 0.0
2017-Feb-25 11:33N 36°10' W 005°23'0 0.0
2017-Feb-25 10:33N 36°10' W 005°23'0 0.0
2017-Feb-25 09:33N 36°10' W 005°23'0 0.0
2017-Feb-25 08:33N 36°10' W 005°23'0 0.0
2017-Feb-25 07:33N 36°10' W 005°23'1 0.8
2017-Feb-25 06:33N 36°11' W 005°24'0 0.5
2017-Feb-25 05:33N 36°11' W 005°24'1 0.5
2017-Feb-25 04:33N 36°11' W 005°24'1 0.5
2017-Feb-25 03:33N 36°11' W 005°24'0 0.0
2017-Feb-25 02:33N 36°11' W 005°24'0 0.0
2017-Feb-25 01:33N 36°11' W 005°24'0 0.0
2017-Feb-25 00:33N 36°11' W 005°24'0 0.1
2017-Feb-24 23:34N 36°10' W 005°24'0 0.2
2017-Feb-24 22:34N 36°10' W 005°24'0 0.4
2017-Feb-24 21:33N 36°11' W 005°24'0 0.0
2017-Feb-24 20:33N 36°11' W 005°24'0 0.1
2017-Feb-24 19:33N 36°11' W 005°24'1 1.2
2017-Feb-24 18:33N 36°10' W 005°23'0 0.0
2017-Feb-24 17:33N 36°10' W 005°23'0 0.0
2017-Feb-24 16:33N 36°10' W 005°23'1 0.8
2017-Feb-24 15:33N 36°11' W 005°24'1 1.3
2017-Feb-24 14:33N 36°09' W 005°24'1 1.4
2017-Feb-24 13:33N 36°10' W 005°23'1 1.0
2017-Feb-24 12:33N 36°11' W 005°24'0 0.4
2017-Feb-24 11:33N 36°10' W 005°24'0 0.5
2017-Feb-24 10:33N 36°11' W 005°24'0 0.2
2017-Feb-24 09:33N 36°11' W 005°24'1 1.2
2017-Feb-24 08:33N 36°10' W 005°25'2 1.7
2017-Feb-24 07:34N 36°10' W 005°23'0 0.0
2017-Feb-24 06:33N 36°10' W 005°23'0 0.0
2017-Feb-24 05:34N 36°10' W 005°23'0 0.0
2017-Feb-24 04:33N 36°10' W 005°23'1 0.6
2017-Feb-24 03:34N 36°11' W 005°23'1 0.6
2017-Feb-24 02:33N 36°10' W 005°23'0 0.0
2017-Feb-24 01:33N 36°10' W 005°23'0 0.0
2017-Feb-24 00:33N 36°10' W 005°23'0 0.0
2017-Feb-23 23:33N 36°10' W 005°23'0 0.0
2017-Feb-23 22:33N 36°10' W 005°23'0 0.0
2017-Feb-23 21:33N 36°10' W 005°23'0 0.0
2017-Feb-23 20:33N 36°10' W 005°23'0 0.0
2017-Feb-23 19:33N 36°10' W 005°23'1 1.1
2017-Feb-23 18:33N 36°10' W 005°24'1 0.8
2017-Feb-23 17:33N 36°11' W 005°24'0 0.0
2017-Feb-23 16:33N 36°11' W 005°24'0 0.0
2017-Feb-23 15:33N 36°11' W 005°24'0 0.0
2017-Feb-23 14:33N 36°11' W 005°24'0 0.0
2017-Feb-23 13:33N 36°11' W 005°24'0 0.0
2017-Feb-23 12:33N 36°11' W 005°24'0 0.0
2017-Feb-23 11:33N 36°11' W 005°24'0 0.0
2017-Feb-23 10:33N 36°11' W 005°24'0 0.0
2017-Feb-23 09:33N 36°11' W 005°24'0 0.0
2017-Feb-23 08:33N 36°11' W 005°24'0 0.0
2017-Feb-23 07:33N 36°11' W 005°24'1 1.2
2017-Feb-23 06:33N 36°10' W 005°23'0 0.0
2017-Feb-23 05:33N 36°10' W 005°23'0 0.0
2017-Feb-23 04:33N 36°10' W 005°23'0 0.0
2017-Feb-23 03:33N 36°10' W 005°23'0 0.0
2017-Feb-23 02:33N 36°10' W 005°23'0 0.0
2017-Feb-23 01:33N 36°10' W 005°23'0 0.0
2017-Feb-23 00:33N 36°10' W 005°23'0 0.0
2017-Feb-22 23:33N 36°10' W 005°23'1 0.9
2017-Feb-22 22:33N 36°10' W 005°24'1 0.9
2017-Feb-22 21:33N 36°10' W 005°23'1 0.8
2017-Feb-22 20:33N 36°11' W 005°24'1 0.8
2017-Feb-22 19:33N 36°10' W 005°23'0 0.0
2017-Feb-22 18:33N 36°10' W 005°23'0 0.0
2017-Feb-22 17:33N 36°10' W 005°23'0 0.0
2017-Feb-22 16:33N 36°10' W 005°23'1 1.0
2017-Feb-22 15:33N 36°11' W 005°24'3 2.7
2017-Feb-22 14:34N 36°08' W 005°26'3 2.8
2017-Feb-22 13:34N 36°10' W 005°23'0 0.3
2017-Feb-22 12:34N 36°10' W 005°23'1 1.5
2017-Feb-22 11:33N 36°10' W 005°25'1 1.4
2017-Feb-22 10:33N 36°10' W 005°23'0 0.2
2017-Feb-22 09:34N 36°10' W 005°23'1 0.6
2017-Feb-22 08:34N 36°11' W 005°24'1 0.7
2017-Feb-22 07:33N 36°10' W 005°23'1 1.0
2017-Feb-22 06:34N 36°10' W 005°24'3 2.9
2017-Feb-22 05:33N 36°08' W 005°26'0 0.0
2017-Feb-22 04:33N 36°08' W 005°26'0 0.0
2017-Feb-22 03:33N 36°08' W 005°26'0 0.0
2017-Feb-22 02:33N 36°08' W 005°26'0 0.0
2017-Feb-22 01:33N 36°08' W 005°26'0 0.0
2017-Feb-22 00:33N 36°08' W 005°26'0 0.0
2017-Feb-21 23:33N 36°08' W 005°26'0 0.0
2017-Feb-21 22:33N 36°08' W 005°26'0 0.0
2017-Feb-21 21:33N 36°08' W 005°26'0 0.0
2017-Feb-21 20:33N 36°08' W 005°26'0 0.0
2017-Feb-21 19:33N 36°08' W 005°26'0 0.0
2017-Feb-21 18:34N 36°08' W 005°26'0 0.0
2017-Feb-21 17:33N 36°08' W 005°26'0 0.0
2017-Feb-21 16:34N 36°08' W 005°26'0 0.0
2017-Feb-21 15:33N 36°08' W 005°26'0 0.4
2017-Feb-21 14:33N 36°08' W 005°26'0 0.0
2017-Feb-21 13:33N 36°08' W 005°26'0 0.0
2017-Feb-21 12:33N 36°08' W 005°26'0 0.0
2017-Feb-21 11:33N 36°08' W 005°26'0 0.0
2017-Feb-21 10:33N 36°08' W 005°26'0 0.0
2017-Feb-21 09:33N 36°08' W 005°26'0 0.2
2017-Feb-21 08:33N 36°08' W 005°26'4 3.5
2017-Feb-21 07:33N 36°10' W 005°23'0 0.0
2017-Feb-21 06:33N 36°10' W 005°23'0 0.0
2017-Feb-21 05:33N 36°10' W 005°23'0 0.0
2017-Feb-21 04:33N 36°10' W 005°23'0 0.0
2017-Feb-21 03:33N 36°10' W 005°23'0 0.0
2017-Feb-21 02:33N 36°10' W 005°23'0 0.0
2017-Feb-21 01:33N 36°10' W 005°23'0 0.0
2017-Feb-21 00:33N 36°10' W 005°23'0 0.0
2017-Feb-20 23:33N 36°10' W 005°23'0 0.0
2017-Feb-20 22:33N 36°10' W 005°23'0 0.0
2017-Feb-20 21:33N 36°10' W 005°23'0 0.0
2017-Feb-20 20:33N 36°10' W 005°23'0 0.0
2017-Feb-20 19:33N 36°10' W 005°23'0 0.0
2017-Feb-20 18:34N 36°10' W 005°23'0 0.0
2017-Feb-20 17:33N 36°10' W 005°23'0 0.0
2017-Feb-20 16:34N 36°10' W 005°23'0 0.0
2017-Feb-20 15:33N 36°10' W 005°23'0 0.0
2017-Feb-20 14:33N 36°10' W 005°23'3 2.7
2017-Feb-20 13:33N 36°09' W 005°26'0 0.1
2017-Feb-20 12:33N 36°09' W 005°26'3 2.9
2017-Feb-20 11:33N 36°10' W 005°23'0 0.0
2017-Feb-20 10:33N 36°10' W 005°23'0 0.4
2017-Feb-20 09:33N 36°10' W 005°23'0 0.0
2017-Feb-20 08:33N 36°10' W 005°23'0 0.0
2017-Feb-20 07:33N 36°10' W 005°23'0 0.0
2017-Feb-20 06:33N 36°10' W 005°23'0 0.0
2017-Feb-20 05:33N 36°10' W 005°23'0 0.0
2017-Feb-20 04:33N 36°10' W 005°23'0 0.0
2017-Feb-20 03:33N 36°10' W 005°23'0 0.0
2017-Feb-20 02:33N 36°10' W 005°23'0 0.0
2017-Feb-20 01:33N 36°10' W 005°23'0 0.0
2017-Feb-20 00:33N 36°10' W 005°23'0 0.0
2017-Feb-19 23:33N 36°10' W 005°23'1 1.2
2017-Feb-19 22:34N 36°11' W 005°24'1 1.2
2017-Feb-19 21:33N 36°10' W 005°23'0 0.0
2017-Feb-19 20:33N 36°10' W 005°23'0 0.0
2017-Feb-19 19:33N 36°10' W 005°23'0 0.0
2017-Feb-19 18:33N 36°10' W 005°23'0 0.5
2017-Feb-19 17:34N 36°10' W 005°23'1 1.5
2017-Feb-19 16:33N 36°11' W 005°24'0 0.2
2017-Feb-19 15:34N 36°11' W 005°24'1 1.3
2017-Feb-19 14:33N 36°10' W 005°23'0 0.0
2017-Feb-19 13:33N 36°10' W 005°23'0 0.0
2017-Feb-19 12:33N 36°10' W 005°23'0 0.0
2017-Feb-19 11:33N 36°10' W 005°23'0 0.0
2017-Feb-19 10:33N 36°10' W 005°23'0 0.0
2017-Feb-19 09:33N 36°10' W 005°23'0 0.0
2017-Feb-19 08:33N 36°10' W 005°23'0 0.0
2017-Feb-19 07:33N 36°10' W 005°23'0 0.0
2017-Feb-19 06:33N 36°10' W 005°23'0 0.0
2017-Feb-19 05:33N 36°10' W 005°23'0 0.0
2017-Feb-19 04:33N 36°10' W 005°23'0 0.0
2017-Feb-19 03:33N 36°10' W 005°23'0 0.0
2017-Feb-19 02:33N 36°10' W 005°23'0 0.0
2017-Feb-19 01:33N 36°10' W 005°23'0 0.0
2017-Feb-19 00:33N 36°10' W 005°23'0 0.0
2017-Feb-18 23:33N 36°10' W 005°23'0 0.0
2017-Feb-18 22:33N 36°10' W 005°23'1 1.0
2017-Feb-18 21:33N 36°11' W 005°24'0 0.3
2017-Feb-18 20:33N 36°11' W 005°24'0 0.0
2017-Feb-18 19:33N 36°11' W 005°24'0 0.0
2017-Feb-18 18:33N 36°11' W 005°24'0 0.0
2017-Feb-18 17:34N 36°11' W 005°24'2 1.6
2017-Feb-18 16:34N 36°10' W 005°23'2 1.6
2017-Feb-18 15:33N 36°11' W 005°24'0 0.0
2017-Feb-18 14:33N 36°11' W 005°24'0 0.0
2017-Feb-18 13:33N 36°11' W 005°24'0 0.0
2017-Feb-18 12:33N 36°11' W 005°24'0 0.0
2017-Feb-18 11:33N 36°11' W 005°24'1 0.7
2017-Feb-18 10:34N 36°11' W 005°23'1 0.7
2017-Feb-18 09:33N 36°11' W 005°24'0 0.1
2017-Feb-18 08:33N 36°11' W 005°24'1 1.2
2017-Feb-18 07:33N 36°10' W 005°23'0 0.0
2017-Feb-18 06:33N 36°10' W 005°23'0 0.0
2017-Feb-18 05:33N 36°10' W 005°23'  
Track history (hours):
 
Tides and Currents Weather Stations Pressure Air Temp Water Temp Dewpoint Dewpoint Depression Visibility Wind Speed Wind Dir Waves Ship Positions

Sertosa Veintisiete

Last reported at 2017-Feb-28 05:33 UTC. Time now 2017-Feb-28 05:39 UTC.
Position N 36°10' W 005°23'.

Length 30 m; draft 5.5 m.

Type: Tug. MMSI: 224337000.

Date/timePositionNaut miles runAvg speedWind from/ knotsBaromVisibWave heightAir tempDewpointWater temp
2017-Feb-28 05:33N 36°10' W 005°23'1 0.8
2017-Feb-28 04:33N 36°11' W 005°24'1 1.1
2017-Feb-28 03:33N 36°09' W 005°24'1 0.9
2017-Feb-28 02:33N 36°10' W 005°24'1 0.7
2017-Feb-28 01:33N 36°10' W 005°23'1 0.8
2017-Feb-28 00:34N 36°10' W 005°24'1 0.8
2017-Feb-27 23:33N 36°10' W 005°23'0 0.0
2017-Feb-27 22:33N 36°10' W 005°23'0 0.0
2017-Feb-27 21:33N 36°10' W 005°23'0 0.0
2017-Feb-27 20:33N 36°10' W 005°23'0 0.0
2017-Feb-27 19:33N 36°10' W 005°23'1 1.1
2017-Feb-27 18:33N 36°11' W 005°24'0 0.1
2017-Feb-27 17:33N 36°11' W 005°24'0 0.0
2017-Feb-27 16:33N 36°11' W 005°24'0 0.2
2017-Feb-27 15:33N 36°11' W 005°24'0 0.4
2017-Feb-27 14:33N 36°11' W 005°24'0 0.1
2017-Feb-27 13:33N 36°11' W 005°24'0 0.0
2017-Feb-27 12:33N 36°11' W 005°24'0 0.0
2017-Feb-27 11:33N 36°11' W 005°24'1 0.9
2017-Feb-27 10:33N 36°10' W 005°24'9 9.3
2017-Feb-27 09:33N 36°01' W 005°19'8 7.7
2017-Feb-27 08:34N 35°54' W 005°18'2 2.4
2017-Feb-27 07:34N 35°56' W 005°18'1010.1
2017-Feb-27 06:33N 36°05' W 005°23'5 4.9
2017-Feb-27 05:33N 36°10' W 005°23'0 0.0
2017-Feb-27 04:33N 36°10' W 005°23'0 0.0
2017-Feb-27 03:33N 36°10' W 005°23'0 0.0
2017-Feb-27 02:33N 36°10' W 005°23'0 0.0
2017-Feb-27 01:33N 36°10' W 005°23'0 0.0
2017-Feb-27 00:33N 36°10' W 005°23'0 0.0
2017-Feb-26 23:33N 36°10' W 005°23'0 0.0
2017-Feb-26 22:33N 36°10' W 005°23'0 0.0
2017-Feb-26 21:33N 36°10' W 005°23'0 0.0
2017-Feb-26 20:33N 36°10' W 005°23'0 0.0
2017-Feb-26 19:33N 36°10' W 005°23'2 1.7
2017-Feb-26 18:33N 36°10' W 005°25'1 0.8
2017-Feb-26 17:33N 36°11' W 005°24'0 0.2
2017-Feb-26 16:33N 36°11' W 005°24'0 0.3
2017-Feb-26 15:33N 36°11' W 005°24'0 0.1
2017-Feb-26 14:33N 36°11' W 005°24'0 0.0
2017-Feb-26 13:33N 36°11' W 005°24'0 0.0
2017-Feb-26 12:33N 36°11' W 005°24'0 0.5
2017-Feb-26 11:33N 36°11' W 005°24'1 0.8
2017-Feb-26 10:33N 36°10' W 005°24'1 0.6
2017-Feb-26 09:34N 36°11' W 005°24'0 0.0
2017-Feb-26 08:33N 36°11' W 005°24'0 0.3
2017-Feb-26 07:33N 36°11' W 005°24'0 0.0
2017-Feb-26 06:33N 36°11' W 005°24'0 0.0
2017-Feb-26 05:33N 36°11' W 005°24'0 0.0
2017-Feb-26 04:33N 36°11' W 005°24'1 0.6
2017-Feb-26 03:34N 36°11' W 005°24'1 0.6
2017-Feb-26 02:33N 36°11' W 005°24'1 1.4
2017-Feb-26 01:34N 36°10' W 005°23'9 9.2
2017-Feb-26 00:33N 36°01' W 005°20'7 7.2
2017-Feb-25 23:33N 35°54' W 005°18'1 0.7
2017-Feb-25 22:34N 35°54' W 005°19'0 0.3
2017-Feb-25 21:33N 35°54' W 005°19'0 0.0
2017-Feb-25 20:33N 35°54' W 005°19'0 0.0
2017-Feb-25 19:33N 35°54' W 005°19'1 1.3
2017-Feb-25 18:33N 35°55' W 005°19'10 9.7
2017-Feb-25 17:33N 36°04' W 005°23'6 5.8
2017-Feb-25 16:33N 36°10' W 005°23'2 1.8
2017-Feb-25 15:34N 36°10' W 005°25'1 1.3
2017-Feb-25 14:34N 36°10' W 005°23'0 0.5
2017-Feb-25 13:33N 36°10' W 005°23'0 0.0
2017-Feb-25 12:34N 36°10' W 005°23'0 0.0
2017-Feb-25 11:33N 36°10' W 005°23'0 0.0
2017-Feb-25 10:33N 36°10' W 005°23'0 0.0
2017-Feb-25 09:33N 36°10' W 005°23'0 0.0
2017-Feb-25 08:33N 36°10' W 005°23'0 0.0
2017-Feb-25 07:33N 36°10' W 005°23'1 0.8
2017-Feb-25 06:33N 36°11' W 005°24'0 0.5
2017-Feb-25 05:33N 36°11' W 005°24'1 0.5
2017-Feb-25 04:33N 36°11' W 005°24'1 0.5
2017-Feb-25 03:33N 36°11' W 005°24'0 0.0
2017-Feb-25 02:33N 36°11' W 005°24'0 0.0
2017-Feb-25 01:33N 36°11' W 005°24'0 0.0
2017-Feb-25 00:33N 36°11' W 005°24'0 0.1
2017-Feb-24 23:34N 36°10' W 005°24'0 0.2
2017-Feb-24 22:34N 36°10' W 005°24'0 0.4
2017-Feb-24 21:33N 36°11' W 005°24'0 0.0
2017-Feb-24 20:33N 36°11' W 005°24'0 0.1
2017-Feb-24 19:33N 36°11' W 005°24'1 1.2
2017-Feb-24 18:33N 36°10' W 005°23'0 0.0
2017-Feb-24 17:33N 36°10' W 005°23'0 0.0
2017-Feb-24 16:33N 36°10' W 005°23'1 0.8
2017-Feb-24 15:33N 36°11' W 005°24'1 1.3
2017-Feb-24 14:33N 36°09' W 005°24'1 1.4
2017-Feb-24 13:33N 36°10' W 005°23'1 1.0
2017-Feb-24 12:33N 36°11' W 005°24'0 0.4
2017-Feb-24 11:33N 36°10' W 005°24'0 0.5
2017-Feb-24 10:33N 36°11' W 005°24'0 0.2
2017-Feb-24 09:33N 36°11' W 005°24'1 1.2
2017-Feb-24 08:33N 36°10' W 005°25'2 1.7
2017-Feb-24 07:34N 36°10' W 005°23'0 0.0
2017-Feb-24 06:33N 36°10' W 005°23'0 0.0
2017-Feb-24 05:34N 36°10' W 005°23'0 0.0
2017-Feb-24 04:33N 36°10' W 005°23'1 0.6
2017-Feb-24 03:34N 36°11' W 005°23'1 0.6
2017-Feb-24 02:33N 36°10' W 005°23'0 0.0
2017-Feb-24 01:33N 36°10' W 005°23'0 0.0
2017-Feb-24 00:33N 36°10' W 005°23'0 0.0
2017-Feb-23 23:33N 36°10' W 005°23'0 0.0
2017-Feb-23 22:33N 36°10' W 005°23'0 0.0
2017-Feb-23 21:33N 36°10' W 005°23'0 0.0
2017-Feb-23 20:33N 36°10' W 005°23'0 0.0
2017-Feb-23 19:33N 36°10' W 005°23'1 1.1
2017-Feb-23 18:33N 36°10' W 005°24'1 0.8
2017-Feb-23 17:33N 36°11' W 005°24'0 0.0
2017-Feb-23 16:33N 36°11' W 005°24'0 0.0
2017-Feb-23 15:33N 36°11' W 005°24'0 0.0
2017-Feb-23 14:33N 36°11' W 005°24'0 0.0
2017-Feb-23 13:33N 36°11' W 005°24'0 0.0
2017-Feb-23 12:33N 36°11' W 005°24'0 0.0
2017-Feb-23 11:33N 36°11' W 005°24'0 0.0
2017-Feb-23 10:33N 36°11' W 005°24'0 0.0
2017-Feb-23 09:33N 36°11' W 005°24'0 0.0
2017-Feb-23 08:33N 36°11' W 005°24'0 0.0
2017-Feb-23 07:33N 36°11' W 005°24'1 1.2
2017-Feb-23 06:33N 36°10' W 005°23'0 0.0
2017-Feb-23 05:33N 36°10' W 005°23'0 0.0
2017-Feb-23 04:33N 36°10' W 005°23'0 0.0
2017-Feb-23 03:33N 36°10' W 005°23'0 0.0
2017-Feb-23 02:33N 36°10' W 005°23'0 0.0
2017-Feb-23 01:33N 36°10' W 005°23'0 0.0
2017-Feb-23 00:33N 36°10' W 005°23'0 0.0
2017-Feb-22 23:33N 36°10' W 005°23'1 0.9
2017-Feb-22 22:33N 36°10' W 005°24'1 0.9
2017-Feb-22 21:33N 36°10' W 005°23'1 0.8
2017-Feb-22 20:33N 36°11' W 005°24'1 0.8
2017-Feb-22 19:33N 36°10' W 005°23'0 0.0
2017-Feb-22 18:33N 36°10' W 005°23'0 0.0
2017-Feb-22 17:33N 36°10' W 005°23'0 0.0
2017-Feb-22 16:33N 36°10' W 005°23'1 1.0
2017-Feb-22 15:33N 36°11' W 005°24'3 2.7
2017-Feb-22 14:34N 36°08' W 005°26'3 2.8
2017-Feb-22 13:34N 36°10' W 005°23'0 0.3
2017-Feb-22 12:34N 36°10' W 005°23'1 1.5
2017-Feb-22 11:33N 36°10' W 005°25'1 1.4
2017-Feb-22 10:33N 36°10' W 005°23'0 0.2
2017-Feb-22 09:34N 36°10' W 005°23'1 0.6
2017-Feb-22 08:34N 36°11' W 005°24'1 0.7
2017-Feb-22 07:33N 36°10' W 005°23'1 1.0
2017-Feb-22 06:34N 36°10' W 005°24'3 2.9
2017-Feb-22 05:33N 36°08' W 005°26'0 0.0
2017-Feb-22 04:33N 36°08' W 005°26'0 0.0
2017-Feb-22 03:33N 36°08' W 005°26'0 0.0
2017-Feb-22 02:33N 36°08' W 005°26'0 0.0
2017-Feb-22 01:33N 36°08' W 005°26'0 0.0
2017-Feb-22 00:33N 36°08' W 005°26'0 0.0
2017-Feb-21 23:33N 36°08' W 005°26'0 0.0
2017-Feb-21 22:33N 36°08' W 005°26'0 0.0
2017-Feb-21 21:33N 36°08' W 005°26'0 0.0
2017-Feb-21 20:33N 36°08' W 005°26'0 0.0
2017-Feb-21 19:33N 36°08' W 005°26'0 0.0
2017-Feb-21 18:34N 36°08' W 005°26'0 0.0
2017-Feb-21 17:33N 36°08' W 005°26'0 0.0
2017-Feb-21 16:34N 36°08' W 005°26'0 0.0
2017-Feb-21 15:33N 36°08' W 005°26'0 0.4
2017-Feb-21 14:33N 36°08' W 005°26'0 0.0
2017-Feb-21 13:33N 36°08' W 005°26'0 0.0
2017-Feb-21 12:33N 36°08' W 005°26'0 0.0
2017-Feb-21 11:33N 36°08' W 005°26'0 0.0
2017-Feb-21 10:33N 36°08' W 005°26'0 0.0
2017-Feb-21 09:33N 36°08' W 005°26'0 0.2
2017-Feb-21 08:33N 36°08' W 005°26'4 3.5
2017-Feb-21 07:33N 36°10' W 005°23'0 0.0
2017-Feb-21 06:33N 36°10' W 005°23'0 0.0
2017-Feb-21 05:33N 36°10' W 005°23'0 0.0
2017-Feb-21 04:33N 36°10' W 005°23'0 0.0
2017-Feb-21 03:33N 36°10' W 005°23'0 0.0
2017-Feb-21 02:33N 36°10' W 005°23'0 0.0
2017-Feb-21 01:33N 36°10' W 005°23'0 0.0
2017-Feb-21 00:33N 36°10' W 005°23'0 0.0
2017-Feb-20 23:33N 36°10' W 005°23'0 0.0
2017-Feb-20 22:33N 36°10' W 005°23'0 0.0
2017-Feb-20 21:33N 36°10' W 005°23'0 0.0
2017-Feb-20 20:33N 36°10' W 005°23'0 0.0
2017-Feb-20 19:33N 36°10' W 005°23'0 0.0
2017-Feb-20 18:34N 36°10' W 005°23'0 0.0
2017-Feb-20 17:33N 36°10' W 005°23'0 0.0
2017-Feb-20 16:34N 36°10' W 005°23'0 0.0
2017-Feb-20 15:33N 36°10' W 005°23'0 0.0
2017-Feb-20 14:33N 36°10' W 005°23'3 2.7
2017-Feb-20 13:33N 36°09' W 005°26'0 0.1
2017-Feb-20 12:33N 36°09' W 005°26'3 2.9
2017-Feb-20 11:33N 36°10' W 005°23'0 0.0
2017-Feb-20 10:33N 36°10' W 005°23'0 0.4
2017-Feb-20 09:33N 36°10' W 005°23'0 0.0
2017-Feb-20 08:33N 36°10' W 005°23'0 0.0
2017-Feb-20 07:33N 36°10' W 005°23'0 0.0
2017-Feb-20 06:33N 36°10' W 005°23'0 0.0
2017-Feb-20 05:33N 36°10' W 005°23'0 0.0
2017-Feb-20 04:33N 36°10' W 005°23'0 0.0
2017-Feb-20 03:33N 36°10' W 005°23'0 0.0
2017-Feb-20 02:33N 36°10' W 005°23'0 0.0
2017-Feb-20 01:33N 36°10' W 005°23'0 0.0
2017-Feb-20 00:33N 36°10' W 005°23'0 0.0
2017-Feb-19 23:33N 36°10' W 005°23'1 1.2
2017-Feb-19 22:34N 36°11' W 005°24'1 1.2
2017-Feb-19 21:33N 36°10' W 005°23'0 0.0
2017-Feb-19 20:33N 36°10' W 005°23'0 0.0
2017-Feb-19 19:33N 36°10' W 005°23'0 0.0
2017-Feb-19 18:33N 36°10' W 005°23'0 0.5
2017-Feb-19 17:34N 36°10' W 005°23'1 1.5
2017-Feb-19 16:33N 36°11' W 005°24'0 0.2
2017-Feb-19 15:34N 36°11' W 005°24'1 1.3
2017-Feb-19 14:33N 36°10' W 005°23'0 0.0
2017-Feb-19 13:33N 36°10' W 005°23'0 0.0
2017-Feb-19 12:33N 36°10' W 005°23'0 0.0
2017-Feb-19 11:33N 36°10' W 005°23'0 0.0
2017-Feb-19 10:33N 36°10' W 005°23'0 0.0
2017-Feb-19 09:33N 36°10' W 005°23'0 0.0
2017-Feb-19 08:33N 36°10' W 005°23'0 0.0
2017-Feb-19 07:33N 36°10' W 005°23'0 0.0
2017-Feb-19 06:33N 36°10' W 005°23'0 0.0
2017-Feb-19 05:33N 36°10' W 005°23'0 0.0
2017-Feb-19 04:33N 36°10' W 005°23'0 0.0
2017-Feb-19 03:33N 36°10' W 005°23'0 0.0
2017-Feb-19 02:33N 36°10' W 005°23'0 0.0
2017-Feb-19 01:33N 36°10' W 005°23'0 0.0
2017-Feb-19 00:33N 36°10' W 005°23'0 0.0
2017-Feb-18 23:33N 36°10' W 005°23'0 0.0
2017-Feb-18 22:33N 36°10' W 005°23'1 1.0
2017-Feb-18 21:33N 36°11' W 005°24'0 0.3
2017-Feb-18 20:33N 36°11' W 005°24'0 0.0
2017-Feb-18 19:33N 36°11' W 005°24'0 0.0
2017-Feb-18 18:33N 36°11' W 005°24'0 0.0
2017-Feb-18 17:34N 36°11' W 005°24'2 1.6
2017-Feb-18 16:34N 36°10' W 005°23'2 1.6
2017-Feb-18 15:33N 36°11' W 005°24'0 0.0
2017-Feb-18 14:33N 36°11' W 005°24'0 0.0
2017-Feb-18 13:33N 36°11' W 005°24'0 0.0
2017-Feb-18 12:33N 36°11' W 005°24'0 0.0
2017-Feb-18 11:33N 36°11' W 005°24'1 0.7
2017-Feb-18 10:34N 36°11' W 005°23'1 0.7
2017-Feb-18 09:33N 36°11' W 005°24'0 0.1
2017-Feb-18 08:33N 36°11' W 005°24'1 1.2
2017-Feb-18 07:33N 36°10' W 005°23'0 0.0
2017-Feb-18 06:33N 36°10' W 005°23'0 0.0
2017-Feb-18 05:33N 36°10' W 005°23'  

Dump ship's entire track history